createdAt,value
2022-12-08T00:01:06.446Z,2.68
2022-12-08T00:03:33.238Z,2.30
2022-12-08T00:06:18.391Z,2.15
2022-12-08T00:09:03.049Z,2.10
2022-12-08T00:11:29.332Z,2.18
2022-12-08T00:13:55.647Z,2.32
2022-12-08T00:16:21.977Z,2.39
2022-12-08T00:18:48.342Z,2.35
2022-12-08T00:21:14.629Z,2.20
2022-12-08T00:23:40.931Z,2.11
2022-12-08T00:26:07.193Z,2.08
2022-12-08T00:28:33.894Z,2.01
2022-12-08T00:31:00.229Z,1.97
2022-12-08T00:33:29.503Z,1.98
2022-12-08T00:35:55.785Z,2.08
2022-12-08T00:38:22.080Z,2.15
2022-12-08T00:40:48.383Z,2.04
2022-12-08T00:43:14.747Z,1.83
2022-12-08T00:45:41.200Z,1.75
2022-12-08T00:48:07.557Z,1.69
2022-12-08T00:50:33.928Z,1.70
2022-12-08T00:53:00.203Z,1.56
2022-12-08T00:55:26.532Z,1.56
2022-12-08T00:57:52.833Z,1.65
2022-12-08T01:00:19.319Z,1.87
2022-12-08T01:02:45.592Z,2.04
2022-12-08T01:05:11.864Z,2.17
2022-12-08T01:07:38.163Z,2.25
2022-12-08T01:10:04.985Z,2.27
2022-12-08T01:12:31.449Z,2.10
2022-12-08T01:15:02.027Z,2.19
2022-12-08T01:17:28.892Z,2.21
2022-12-08T01:19:55.171Z,2.26
2022-12-08T01:22:21.474Z,2.35
2022-12-08T01:24:47.770Z,2.31
2022-12-08T01:27:15.258Z,2.27
2022-12-08T01:29:41.511Z,2.38
2022-12-08T01:32:08.125Z,2.32
2022-12-08T01:34:34.722Z,2.36
2022-12-08T01:37:01.004Z,2.33
2022-12-08T01:39:27.361Z,2.39
2022-12-08T01:41:53.686Z,2.40
2022-12-08T01:44:19.994Z,2.46
2022-12-08T01:46:48.396Z,2.36
2022-12-08T01:49:20.644Z,2.37
2022-12-08T01:51:56.520Z,2.33
2022-12-08T01:54:23.386Z,2.32
2022-12-08T01:56:51.769Z,2.33
2022-12-08T01:59:18.057Z,2.23
2022-12-08T02:01:44.383Z,2.01
2022-12-08T02:04:10.715Z,1.89
2022-12-08T02:06:37.742Z,1.68
2022-12-08T02:09:04.138Z,1.66
2022-12-08T02:11:30.407Z,1.83
2022-12-08T02:13:57.269Z,2.08
2022-12-08T02:16:23.583Z,1.93
2022-12-08T02:19:07.989Z,1.72
2022-12-08T02:21:48.312Z,1.77
2022-12-08T02:24:17.622Z,1.76
2022-12-08T02:26:58.342Z,1.83
2022-12-08T02:29:31.187Z,1.90
2022-12-08T02:32:16.274Z,2.05
2022-12-08T02:34:47.514Z,2.10
2022-12-08T02:37:18.076Z,2.02
2022-12-08T02:39:45.800Z,2.01
2022-12-08T02:42:17.667Z,2.02
2022-12-08T02:44:48.524Z,1.94
2022-12-08T02:47:15.828Z,1.96
2022-12-08T02:49:42.120Z,2.04
2022-12-08T02:52:11.421Z,1.85
2022-12-08T02:54:37.690Z,1.79
2022-12-08T02:57:13.174Z,1.84
2022-12-08T02:59:43.170Z,1.84
2022-12-08T03:02:21.746Z,1.82
2022-12-08T03:04:58.292Z,1.92
2022-12-08T03:07:25.739Z,2.01
2022-12-08T03:09:56.364Z,1.97
2022-12-08T03:12:25.646Z,1.89
2022-12-08T03:14:53.160Z,1.95
2022-12-08T03:17:19.926Z,1.69
2022-12-08T03:19:46.288Z,1.66
2022-12-08T03:22:12.550Z,1.67
2022-12-08T03:24:39.517Z,1.49
2022-12-08T03:27:05.790Z,1.56
2022-12-08T03:29:32.085Z,1.53
2022-12-08T03:31:59.130Z,1.73
2022-12-08T03:34:25.751Z,1.90
2022-12-08T03:36:52.040Z,1.94
2022-12-08T03:39:18.319Z,2.07
2022-12-08T03:41:44.637Z,2.10
2022-12-08T03:44:10.905Z,2.08
2022-12-08T03:46:37.261Z,1.97
2022-12-08T03:49:03.549Z,1.86
2022-12-08T03:51:29.898Z,1.85
2022-12-08T03:53:56.175Z,1.88
2022-12-08T03:56:26.683Z,1.84
2022-12-08T03:58:53.405Z,1.93
2022-12-08T04:01:19.847Z,2.03
2022-12-08T04:03:46.252Z,2.15
2022-12-08T04:06:12.563Z,2.14
2022-12-08T04:08:38.848Z,2.28
2022-12-08T04:11:06.421Z,2.41
2022-12-08T04:13:35.893Z,2.43
2022-12-08T04:16:02.253Z,2.32
2022-12-08T04:18:28.564Z,2.09
2022-12-08T04:20:54.940Z,1.82
2022-12-08T04:23:21.213Z,1.76
2022-12-08T04:25:47.487Z,1.76
2022-12-08T04:28:13.776Z,1.74
2022-12-08T04:30:40.032Z,1.74
2022-12-08T04:33:06.308Z,1.87
2022-12-08T04:35:32.570Z,2.06
2022-12-08T04:37:58.900Z,2.13
2022-12-08T04:40:25.186Z,2.17
2022-12-08T04:42:51.475Z,2.07
2022-12-08T04:45:17.788Z,2.15
2022-12-08T04:47:44.067Z,2.18
2022-12-08T04:50:10.425Z,2.15
2022-12-08T04:52:36.744Z,1.86
2022-12-08T04:55:03.016Z,1.71
2022-12-08T04:57:29.273Z,1.73
2022-12-08T04:59:55.623Z,1.70
2022-12-08T05:02:21.944Z,1.84
2022-12-08T05:04:48.306Z,1.97
2022-12-08T05:07:14.589Z,1.99
2022-12-08T05:09:40.848Z,1.94
2022-12-08T05:12:07.212Z,2.04
2022-12-08T05:14:33.473Z,2.00
2022-12-08T05:17:02.554Z,1.92
2022-12-08T05:19:31.193Z,2.04
2022-12-08T05:21:57.472Z,2.03
2022-12-08T05:24:23.755Z,2.00
2022-12-08T05:26:50.015Z,1.75
2022-12-08T05:29:16.289Z,1.78
2022-12-08T05:31:42.578Z,1.80
2022-12-08T05:34:08.871Z,1.70
2022-12-08T05:36:35.158Z,1.68
2022-12-08T05:39:01.440Z,1.72
2022-12-08T05:41:27.694Z,1.86
2022-12-08T05:43:53.947Z,1.86
2022-12-08T05:46:20.287Z,1.86
2022-12-08T05:48:46.565Z,1.98
2022-12-08T05:51:19.871Z,2.11
2022-12-08T05:53:46.449Z,2.11
2022-12-08T05:56:12.784Z,2.10
2022-12-08T05:58:39.102Z,2.06
2022-12-08T06:01:05.409Z,1.98
2022-12-08T06:03:31.769Z,1.92
2022-12-08T06:05:58.114Z,2.02
2022-12-08T06:08:24.459Z,2.05
2022-12-08T06:10:50.854Z,1.96
2022-12-08T06:13:17.152Z,1.79
2022-12-08T06:15:43.416Z,1.97
2022-12-08T06:18:09.747Z,2.07
2022-12-08T06:20:36.003Z,2.18
2022-12-08T06:23:03.372Z,2.12
2022-12-08T06:25:29.643Z,2.06
2022-12-08T06:27:55.898Z,1.84
2022-12-08T06:30:22.195Z,1.81
2022-12-08T06:32:48.524Z,1.90
2022-12-08T06:35:14.792Z,1.99
2022-12-08T06:37:41.062Z,2.08
2022-12-08T06:40:07.874Z,2.22
2022-12-08T06:42:46.415Z,2.15
2022-12-08T06:45:13.280Z,2.19
2022-12-08T06:47:39.561Z,2.11
2022-12-08T06:50:06.386Z,1.80
2022-12-08T06:52:32.927Z,1.82
2022-12-08T06:54:59.205Z,1.87
2022-12-08T06:57:25.674Z,1.97
2022-12-08T06:59:51.947Z,2.08
2022-12-08T07:02:18.315Z,2.15
2022-12-08T07:04:44.678Z,2.06
2022-12-08T07:07:10.976Z,1.99
2022-12-08T07:09:37.292Z,2.10
2022-12-08T07:12:04.154Z,2.05
2022-12-08T07:14:30.437Z,2.12
2022-12-08T07:16:56.762Z,2.17
2022-12-08T07:19:23.079Z,2.19
2022-12-08T07:21:49.412Z,2.30
2022-12-08T07:24:15.677Z,2.03
2022-12-08T07:26:42.036Z,2.02
2022-12-08T07:29:09.557Z,2.09
2022-12-08T07:31:35.831Z,2.02
2022-12-08T07:34:02.126Z,1.82
2022-12-08T07:36:28.438Z,1.63
2022-12-08T07:38:54.795Z,1.76
2022-12-08T07:41:23.525Z,1.79
2022-12-08T07:43:50.020Z,1.75
2022-12-08T07:46:17.511Z,1.94
2022-12-08T07:48:43.869Z,1.88
2022-12-08T07:51:10.540Z,1.76
2022-12-08T07:53:42.286Z,1.93
2022-12-08T07:56:09.463Z,2.19
2022-12-08T07:58:35.759Z,2.25
2022-12-08T08:01:02.175Z,2.40
2022-12-08T08:03:28.594Z,2.29
2022-12-08T08:05:54.982Z,2.43
2022-12-08T08:08:21.328Z,2.42
2022-12-08T08:10:47.735Z,2.19
2022-12-08T08:13:14.021Z,2.29
2022-12-08T08:15:40.421Z,2.25
2022-12-08T08:18:06.904Z,2.21
2022-12-08T08:20:33.257Z,2.35
2022-12-08T08:22:59.556Z,2.29
2022-12-08T08:25:25.832Z,2.21
2022-12-08T08:27:52.162Z,2.33
2022-12-08T08:30:20.903Z,2.40
2022-12-08T08:32:47.845Z,2.63
2022-12-08T08:35:14.147Z,2.85
2022-12-08T08:37:43.157Z,3.05
2022-12-08T08:40:13.495Z,3.04
2022-12-08T08:42:39.918Z,3.07
2022-12-08T08:45:06.419Z,3.02
2022-12-08T08:47:32.690Z,3.16
2022-12-08T08:50:01.888Z,3.40
2022-12-08T08:52:28.478Z,3.52
2022-12-08T08:54:54.746Z,3.48
2022-12-08T08:57:25.483Z,3.53
2022-12-08T08:59:52.213Z,3.47
2022-12-08T09:02:19.012Z,3.58
2022-12-08T09:04:45.546Z,3.71
2022-12-08T09:07:11.923Z,3.74
2022-12-08T09:09:38.518Z,3.78
2022-12-08T09:12:05.037Z,3.62
2022-12-08T09:14:31.313Z,3.53
2022-12-08T09:16:57.604Z,3.47
2022-12-08T09:19:23.876Z,3.49
2022-12-08T09:21:50.141Z,3.77
2022-12-08T09:24:16.530Z,3.69
2022-12-08T09:26:43.729Z,3.80
2022-12-08T09:29:10.289Z,3.86
2022-12-08T09:31:36.671Z,3.91
2022-12-08T09:34:03.439Z,4.02
2022-12-08T09:36:29.869Z,4.11
2022-12-08T09:38:56.148Z,3.93
2022-12-08T09:41:36.838Z,3.88
2022-12-08T09:44:25.627Z,4.03
2022-12-08T09:46:52.284Z,4.20
2022-12-08T09:49:19.509Z,4.30
2022-12-08T09:51:46.156Z,4.33
2022-12-08T09:54:15.800Z,4.27
2022-12-08T09:56:42.102Z,4.42
2022-12-08T09:59:08.309Z,4.42
2022-12-08T10:01:38.007Z,4.30
2022-12-08T10:04:04.604Z,4.31
2022-12-08T10:06:31.771Z,4.36
2022-12-08T10:09:03.488Z,4.45
2022-12-08T10:11:37.135Z,4.58
2022-12-08T10:14:07.932Z,4.43
2022-12-08T10:16:35.040Z,4.57
2022-12-08T10:19:02.352Z,4.60
2022-12-08T10:21:28.785Z,4.61
2022-12-08T10:24:00.045Z,4.62
2022-12-08T10:26:26.556Z,4.59
2022-12-08T10:28:52.841Z,4.49
2022-12-08T10:31:22.769Z,4.41
2022-12-08T10:33:57.813Z,4.57
2022-12-08T10:36:27.559Z,4.67
2022-12-08T10:38:53.821Z,4.79
2022-12-08T10:41:20.688Z,4.67
2022-12-08T10:43:48.024Z,4.83
2022-12-08T10:46:18.695Z,4.86
2022-12-08T10:48:49.361Z,4.83
2022-12-08T10:51:22.234Z,4.80
2022-12-08T10:53:48.504Z,4.61
2022-12-08T10:56:15.305Z,4.77
2022-12-08T10:58:42.259Z,4.91
2022-12-08T11:01:24.658Z,4.88
2022-12-08T11:03:51.950Z,5.02
2022-12-08T11:06:31.186Z,4.96
2022-12-08T11:08:58.184Z,4.91
2022-12-08T11:11:44.263Z,4.94
2022-12-08T11:14:15.435Z,4.98
2022-12-08T11:16:42.117Z,5.18
2022-12-08T11:19:15.697Z,5.28
2022-12-08T11:21:42.788Z,5.23
2022-12-08T11:24:20.398Z,5.20
2022-12-08T11:26:49.349Z,5.29
2022-12-08T11:29:17.307Z,5.25
2022-12-08T11:31:50.819Z,5.22
2022-12-08T11:34:29.692Z,5.16
2022-12-08T11:36:55.991Z,5.28
2022-12-08T11:39:22.285Z,5.36
2022-12-08T11:41:48.622Z,5.40
2022-12-08T11:44:24.151Z,5.35
2022-12-08T11:46:56.857Z,5.37
2022-12-08T11:49:23.134Z,5.37
2022-12-08T11:52:12.005Z,5.42
2022-12-08T11:54:42.898Z,5.31
2022-12-08T11:57:11.672Z,5.31
2022-12-08T11:59:39.601Z,5.40
2022-12-08T12:02:05.940Z,5.51
2022-12-08T12:04:41.298Z,5.34
2022-12-08T12:07:25.987Z,5.44
2022-12-08T12:10:11.563Z,5.58
2022-12-08T12:12:50.131Z,5.58
2022-12-08T12:15:21.035Z,5.63
2022-12-08T12:18:00.830Z,5.58
2022-12-08T12:20:30.140Z,5.66
2022-12-08T12:23:19.800Z,5.63
2022-12-08T12:25:48.166Z,5.68
2022-12-08T12:28:14.460Z,5.63
2022-12-08T12:30:49.955Z,5.34
2022-12-08T12:33:17.571Z,5.48
2022-12-08T12:35:43.956Z,5.61
2022-12-08T12:38:42.729Z,5.72
2022-12-08T12:41:09.183Z,5.72
2022-12-08T12:43:36.035Z,5.78
2022-12-08T12:46:21.099Z,5.82
2022-12-08T12:48:47.403Z,5.82
2022-12-08T12:51:43.155Z,5.73
2022-12-08T12:54:19.847Z,5.57
2022-12-08T12:56:46.861Z,5.63
2022-12-08T12:59:22.799Z,5.67
2022-12-08T13:01:51.080Z,5.69
2022-12-08T13:04:17.476Z,5.71
2022-12-08T13:06:45.500Z,5.65
2022-12-08T13:09:22.006Z,5.58
2022-12-08T13:11:52.019Z,5.56
2022-12-08T13:14:37.236Z,5.54
2022-12-08T13:17:05.656Z,5.57
2022-12-08T13:19:32.144Z,5.56
2022-12-08T13:21:58.697Z,5.55
2022-12-08T13:24:24.963Z,5.56
2022-12-08T13:26:51.184Z,5.51
2022-12-08T13:29:21.713Z,5.52
2022-12-08T13:32:08.316Z,5.55
2022-12-08T13:34:34.682Z,5.49
2022-12-08T13:37:02.256Z,5.60
2022-12-08T13:39:41.009Z,5.58
2022-12-08T13:42:13.308Z,5.56
2022-12-08T13:52:59.960Z,5.57
2022-12-08T13:54:45.534Z,5.75
2022-12-08T13:59:20.468Z,5.93
2022-12-08T14:01:49.826Z,5.92
2022-12-08T14:07:03.949Z,5.99
2022-12-08T14:09:36.429Z,6.06
2022-12-08T14:12:06.884Z,5.97
2022-12-08T14:15:01.649Z,5.85
2022-12-08T14:17:24.876Z,5.94
2022-12-08T14:19:58.350Z,5.93
2022-12-08T14:22:24.886Z,5.85
2022-12-08T14:24:52.177Z,5.85
2022-12-08T14:27:19.377Z,5.72
2022-12-08T14:29:48.880Z,5.75
2022-12-08T14:32:19.456Z,5.83
2022-12-08T14:34:45.981Z,5.61
2022-12-08T14:37:12.281Z,5.66
2022-12-08T14:39:38.776Z,5.57
2022-12-08T14:42:05.073Z,5.50
2022-12-08T14:44:32.084Z,5.37
2022-12-08T14:47:05.883Z,5.20
2022-12-08T14:49:36.346Z,5.18
2022-12-08T14:52:02.677Z,4.86
2022-12-08T14:54:29.644Z,4.83
2022-12-08T14:56:56.223Z,5.01
2022-12-08T14:59:26.278Z,5.12
2022-12-08T15:01:53.890Z,5.10
2022-12-08T15:04:22.998Z,4.99
2022-12-08T15:06:54.160Z,4.92
2022-12-08T15:09:32.637Z,5.08
2022-12-08T15:12:05.894Z,5.08
2022-12-08T15:14:39.814Z,5.09
2022-12-08T15:17:26.094Z,5.13
2022-12-08T15:19:56.004Z,5.17
2022-12-08T15:22:22.848Z,5.16
2022-12-08T15:24:49.122Z,5.17
2022-12-08T15:27:16.453Z,5.20
2022-12-08T15:29:42.741Z,5.15
2022-12-08T15:32:09.040Z,5.16
2022-12-08T15:34:37.147Z,5.30
2022-12-08T15:37:03.456Z,5.20
2022-12-08T15:39:36.704Z,4.89
2022-12-08T15:42:03.504Z,4.89
2022-12-08T15:44:32.364Z,4.97
2022-12-08T15:46:58.756Z,5.02
2022-12-08T15:49:25.126Z,5.11
2022-12-08T15:51:55.704Z,4.86
2022-12-08T15:54:26.979Z,4.75
2022-12-08T15:57:17.964Z,4.92
2022-12-08T15:59:39.872Z,4.78
2022-12-08T16:02:06.235Z,4.83
2022-12-08T16:07:23.504Z,4.96
2022-12-08T16:09:49.952Z,4.92
2022-12-08T16:13:26.683Z,4.93
2022-12-08T16:18:13.012Z,4.94
2022-12-08T16:21:06.134Z,5.01
2022-12-08T16:23:42.429Z,5.07
2022-12-08T16:26:44.091Z,4.61
2022-12-08T16:28:57.313Z,4.50
2022-12-08T16:31:23.792Z,4.67
2022-12-08T16:33:50.103Z,4.86
2022-12-08T16:36:16.411Z,4.86
2022-12-08T16:38:42.673Z,4.82
2022-12-08T16:41:36.698Z,4.78
2022-12-08T16:44:03.706Z,4.82
2022-12-08T16:46:30.036Z,4.72
2022-12-08T16:48:59.205Z,4.81
2022-12-08T16:51:27.219Z,4.88
2022-12-08T16:53:54.077Z,4.83
2022-12-08T16:56:20.840Z,4.89
2022-12-08T16:58:47.249Z,4.92
2022-12-08T17:01:14.286Z,5.01
2022-12-08T17:03:41.210Z,4.39
2022-12-08T17:06:08.316Z,4.53
2022-12-08T17:08:34.586Z,4.67
2022-12-08T17:11:11.628Z,4.83
2022-12-08T17:13:41.257Z,4.88
2022-12-08T17:16:08.459Z,4.95
2022-12-08T17:18:34.804Z,5.07
2022-12-08T17:21:01.059Z,5.04
2022-12-08T17:23:27.391Z,5.18
2022-12-08T17:25:57.828Z,5.03
2022-12-08T17:28:51.639Z,5.04
2022-12-08T17:31:13.668Z,4.64
2022-12-08T17:33:39.990Z,4.18
2022-12-08T17:36:07.890Z,4.35
2022-12-08T17:38:34.162Z,4.64
2022-12-08T17:41:03.902Z,4.71
2022-12-08T17:43:30.234Z,4.92
2022-12-08T17:45:56.550Z,4.94
2022-12-08T17:48:22.855Z,4.93
2022-12-08T17:50:49.211Z,5.17
2022-12-08T17:53:15.474Z,5.33
2022-12-08T17:55:41.960Z,5.22
2022-12-08T17:58:08.279Z,5.28
2022-12-08T18:00:35.227Z,5.30
2022-12-08T18:03:01.520Z,5.22
2022-12-08T18:05:27.796Z,5.34
2022-12-08T18:07:54.141Z,5.04
2022-12-08T18:10:20.483Z,4.44
2022-12-08T18:12:46.757Z,4.70
2022-12-08T18:15:15.225Z,4.91
2022-12-08T18:17:41.482Z,4.99
2022-12-08T18:20:08.166Z,4.86
2022-12-08T18:22:34.658Z,4.87
2022-12-08T18:25:00.937Z,4.96
2022-12-08T18:27:27.196Z,5.04
2022-12-08T18:29:53.561Z,5.07
2022-12-08T18:32:23.422Z,5.16
2022-12-08T18:34:50.061Z,5.09
2022-12-08T18:37:16.383Z,4.90
2022-12-08T18:39:42.640Z,5.08
2022-12-08T18:42:23.990Z,4.82
2022-12-08T18:44:56.187Z,4.56
2022-12-08T18:47:22.472Z,4.80
2022-12-08T18:49:48.983Z,4.98
2022-12-08T18:52:18.969Z,5.16
2022-12-08T18:55:05.880Z,5.29
2022-12-08T18:57:33.224Z,5.13
2022-12-08T18:59:59.567Z,5.15
2022-12-08T19:02:25.982Z,5.27
2022-12-08T19:04:54.586Z,4.83
2022-12-08T19:07:20.845Z,4.79
2022-12-08T19:09:47.191Z,4.69
2022-12-08T19:12:13.456Z,4.50
2022-12-08T19:14:40.171Z,3.98
2022-12-08T19:17:06.499Z,4.23
2022-12-08T19:19:32.898Z,4.58
2022-12-08T19:21:59.178Z,4.80
2022-12-08T19:24:25.588Z,5.02
2022-12-08T19:26:51.978Z,5.04
2022-12-08T19:29:18.289Z,5.18
2022-12-08T19:31:44.728Z,5.23
2022-12-08T19:34:11.927Z,5.15
2022-12-08T19:36:42.345Z,5.01
2022-12-08T19:39:29.568Z,4.77
2022-12-08T19:42:14.678Z,4.53
2022-12-08T19:44:52.730Z,4.94
2022-12-08T19:47:22.846Z,5.14
2022-12-08T19:49:49.194Z,5.23
2022-12-08T19:52:15.501Z,5.09
2022-12-08T19:54:41.780Z,4.45
2022-12-08T19:57:08.100Z,4.55
2022-12-08T19:59:34.361Z,4.74
2022-12-08T20:02:00.771Z,4.98
2022-12-08T20:04:27.134Z,5.16
2022-12-08T20:06:53.647Z,5.21
2022-12-08T20:09:20.218Z,5.26
2022-12-08T20:11:46.529Z,5.15
2022-12-08T20:14:12.832Z,5.36
2022-12-08T20:16:41.011Z,5.46
2022-12-08T20:19:07.530Z,5.48
2022-12-08T20:21:33.826Z,5.38
2022-12-08T20:24:00.109Z,5.47
2022-12-08T20:26:26.387Z,5.56
2022-12-08T20:28:52.676Z,5.71
2022-12-08T20:31:22.999Z,5.56
2022-12-08T20:33:49.414Z,5.37
2022-12-08T20:36:17.959Z,5.33
2022-12-08T20:38:44.820Z,5.35
2022-12-08T20:41:11.234Z,5.35
2022-12-08T20:43:37.676Z,5.32
2022-12-08T20:46:07.467Z,5.11
2022-12-08T20:48:33.979Z,4.89
2022-12-08T20:51:00.396Z,5.04
2022-12-08T20:53:26.806Z,5.26
2022-12-08T20:55:53.287Z,5.55
2022-12-08T20:58:19.642Z,5.59
2022-12-08T21:00:46.012Z,5.64
2022-12-08T21:03:12.716Z,5.69
2022-12-08T21:05:39.469Z,5.85
2022-12-08T21:08:06.487Z,5.83
2022-12-08T21:10:33.150Z,5.70
2022-12-08T21:13:01.773Z,5.56
2022-12-08T21:15:28.310Z,5.62
2022-12-08T21:17:57.450Z,5.41
2022-12-08T21:20:23.965Z,5.19
2022-12-08T21:22:50.299Z,5.29
2022-12-08T21:25:16.820Z,5.43
2022-12-08T21:27:43.230Z,5.48
2022-12-08T21:30:10.342Z,5.53
2022-12-08T21:32:40.207Z,5.49
2022-12-08T21:35:07.062Z,5.35
2022-12-08T21:37:33.461Z,5.27
2022-12-08T21:39:59.727Z,5.37
2022-12-08T21:42:44.455Z,5.60
2022-12-08T21:45:14.838Z,5.86
2022-12-08T21:47:41.325Z,5.91
2022-12-08T21:50:08.348Z,6.03
2022-12-08T21:52:38.541Z,6.00
2022-12-08T21:55:05.386Z,6.09
2022-12-08T21:57:31.719Z,6.02
2022-12-08T21:59:58.044Z,5.98
2022-12-08T22:02:24.552Z,5.99
2022-12-08T22:04:52.477Z,6.01
2022-12-08T22:07:19.628Z,6.01
2022-12-08T22:09:46.017Z,5.96
2022-12-08T22:12:12.888Z,6.01
2022-12-08T22:14:42.204Z,6.08
2022-12-08T22:17:08.554Z,5.99
2022-12-08T22:19:34.912Z,5.93
2022-12-08T22:22:01.196Z,6.06
2022-12-08T22:24:29.373Z,6.14
2022-12-08T22:26:55.649Z,6.23
2022-12-08T22:29:22.167Z,6.29
2022-12-08T22:31:48.580Z,6.24
2022-12-08T22:34:14.940Z,5.94
2022-12-08T22:36:42.210Z,5.16
2022-12-08T22:39:09.598Z,4.60
2022-12-08T22:41:36.119Z,4.53
2022-12-08T22:44:04.968Z,4.63
2022-12-08T22:46:31.323Z,4.87
2022-12-08T22:48:57.638Z,5.15
2022-12-08T22:51:23.990Z,5.43
2022-12-08T22:53:50.323Z,5.57
2022-12-08T22:56:17.627Z,5.69
2022-12-08T22:58:44.448Z,5.56
2022-12-08T23:01:30.044Z,5.51
2022-12-08T23:03:56.829Z,5.61
2022-12-08T23:06:23.664Z,5.72
2022-12-08T23:08:50.353Z,6.01
2022-12-08T23:11:16.702Z,6.16
2022-12-08T23:13:42.979Z,6.27
2022-12-08T23:16:09.633Z,6.36
2022-12-08T23:18:36.097Z,6.38
2022-12-08T23:21:03.340Z,6.12
2022-12-08T23:23:29.790Z,6.18
2022-12-08T23:25:56.103Z,6.29
2022-12-08T23:28:22.412Z,6.47
2022-12-08T23:30:48.778Z,6.48
2022-12-08T23:33:15.234Z,6.37
2022-12-08T23:35:41.725Z,6.32
2022-12-08T23:38:08.081Z,6.32
2022-12-08T23:40:34.368Z,6.29
2022-12-08T23:43:00.726Z,6.24
2022-12-08T23:45:27.025Z,6.22
2022-12-08T23:47:53.321Z,6.30
2022-12-08T23:50:19.665Z,6.25
2022-12-08T23:52:45.981Z,5.64
2022-12-08T23:55:12.364Z,5.67
2022-12-08T23:57:38.794Z,5.91
